JA14AB RJFK-RJFK

Flight info

Callsign JA14AB
Flight time N/A
Altitude 1500
Route TGL
Aircraft SR22/L-SDE3FGHIRWY/LB1

Departure

Time 2026-05-08 13:29
Airport Kagoshima Airport (RJFK)

Arrival

Time N/A
Airport Kagoshima Airport (RJFK)
Time Latitude Longitude Altitude Speed Heading
2026-05-08 13:05 31.79645 130.72092 884 ft 0 kts 331°
2026-05-08 13:14 31.79642 130.72089 884 ft 0 kts 142°
2026-05-08 13:14 31.79634 130.72098 884 ft 2 kts 127°
2026-05-08 13:15 31.79633 130.72108 884 ft 2 kts 67°
2026-05-08 13:15 31.79641 130.72130 884 ft 5 kts 64°
2026-05-08 13:15 31.79649 130.72176 883 ft 10 kts 127°
2026-05-08 13:15 31.79534 130.72258 876 ft 24 kts 147°
2026-05-08 13:16 31.79394 130.72351 866 ft 20 kts 149°
2026-05-08 13:16 31.79280 130.72429 858 ft 16 kts 151°
2026-05-08 13:16 31.79200 130.72482 853 ft 7 kts 150°
2026-05-08 13:16 31.79185 130.72493 852 ft 0 kts 151°
2026-05-08 13:21 31.79184 130.72493 852 ft 3 kts 157°
2026-05-08 13:21 31.79123 130.72542 850 ft 7 kts 123°
2026-05-08 13:21 31.79113 130.72568 849 ft 0 kts 102°
2026-05-08 13:24 31.79112 130.72584 849 ft 8 kts 81°
2026-05-08 13:24 31.79128 130.72630 849 ft 5 kts 64°
2026-05-08 13:24 31.79136 130.72647 850 ft 0 kts 53°
2026-05-08 13:28 31.79172 130.72694 850 ft 13 kts 30°
2026-05-08 13:28 31.79221 130.72696 850 ft 0 kts 336°
2026-05-08 13:28 31.79233 130.72688 850 ft 4 kts 332°
2026-05-08 13:29 31.79319 130.72630 853 ft 39 kts 330°
2026-05-08 13:29 31.79729 130.72350 873 ft 91 kts 333°
2026-05-08 13:29 31.80305 130.71964 1225 ft 89 kts 327°
2026-05-08 13:29 31.80793 130.71606 1634 ft 79 kts 327°
2026-05-08 13:30 31.81248 130.71272 1960 ft 80 kts 327°
2026-05-08 13:30 31.81725 130.70929 2130 ft 82 kts 328°
2026-05-08 13:30 31.82229 130.70569 2044 ft 89 kts 321°
2026-05-08 13:30 31.82287 130.69871 2100 ft 99 kts 249°
2026-05-08 13:31 31.81784 130.69237 2019 ft 107 kts 240°
2026-05-08 13:31 31.81285 130.68579 1923 ft 106 kts 243°
2026-05-08 13:31 31.80877 130.67935 1907 ft 93 kts 250°